Time;durP1;ratioP1;P1;durP2;ratioP2;P2;SDS_P1;SDS_P2;PMS_P1;PMS_P2;Temp;Humidity;BMP_temperature;BMP_pressure;BME280_temperature;BME280_humidity;BME280_pressure;Samples;Min_cycle;Max_cycle;Signal;HPM_P1;HPM_P2
2022/07/20 00:01:18;;;;;;;9.63;4.50;;;;;;;27.34;26.81;98687.50;2618778;54;20034;-66
2022/07/20 00:03:48;;;;;;;;;;;;;;;27.35;26.84;98683.69;2619234;54;20030;-65
2022/07/20 00:06:18;;;;;;;7.88;4.47;;;;;;;27.34;26.84;98684.78;2619047;47;19944;-65
2022/07/20 00:11:30;;;;;;;6.38;4.07;;;;;;;27.27;27.08;98689.00;2619331;54;20053;-64
2022/07/20 00:14:03;;;;;;;10.18;4.72;;;;;;;27.27;26.57;98689.00;2618605;54;20057;-65
2022/07/20 00:16:44;;;;;;;7.40;4.63;;;;;;;27.26;27.25;98693.63;2619883;54;20022;-66
2022/07/20 00:19:17;;;;;;;5.90;4.75;;;;;;;27.26;27.14;98693.63;2619160;54;20031;-65
2022/07/20 00:21:47;;;;;;;9.15;4.97;;;;;;;27.31;27.07;98698.16;2618781;54;20036;-64
2022/07/20 00:24:16;;;;;;;6.85;4.57;;;;;;;27.30;26.89;98696.56;2619443;54;20039;-66
2022/07/20 00:26:46;;;;;;;6.03;5.38;;;;;;;27.29;26.95;98697.66;2619627;54;20039;-64
2022/07/20 00:29:16;;;;;;;8.73;5.28;;;;;;;27.22;27.31;98695.34;2616877;54;20042;-67
2022/07/20 00:31:48;;;;;;;5.60;4.80;;;;;;;27.19;26.97;98690.56;2618257;47;20023;-68
2022/07/20 00:34:18;;;;;;;6.17;5.10;;;;;;;27.14;27.30;98693.38;2624520;39;20473;-69
2022/07/20 00:36:48;;;;;;;11.15;5.18;;;;;;;27.09;26.96;98696.16;2624882;39;20698;-67
2022/07/20 00:39:17;;;;;;;9.35;5.22;;;;;;;27.05;27.27;98695.97;2623010;54;20542;-67
2022/07/20 00:41:47;;;;;;;8.38;5.13;;;;;;;27.05;27.20;98690.53;2620625;54;20545;-66
2022/07/20 00:44:16;;;;;;;9.52;5.70;;;;;;;27.04;27.30;98699.00;2619201;54;20267;-67
2022/07/20 00:46:49;;;;;;;5.85;4.57;;;;;;;27.04;27.35;98693.56;2619370;54;20534;-66
2022/07/20 00:49:18;;;;;;;6.97;5.00;;;;;;;27.02;27.72;98696.56;2618291;47;20533;-66
2022/07/20 00:51:48;;;;;;;8.75;5.10;;;;;;;27.01;27.42;98689.53;2618904;54;20033;-67
2022/07/20 00:54:18;;;;;;;10.18;4.72;;;;;;;26.95;27.83;98695.38;2618309;54;20039;-67
2022/07/20 00:56:47;;;;;;;11.10;5.18;;;;;;;26.85;28.04;98686.31;2618724;54;20043;-67
2022/07/20 00:59:17;;;;;;;7.85;5.15;;;;;;;26.79;28.38;98686.75;2618193;54;20553;-66
2022/07/20 01:01:49;;;;;;;8.50;5.55;;;;;;;26.66;28.26;98685.66;2619301;54;20026;-66
2022/07/20 01:04:19;;;;;;;5.32;4.68;;;;;;;26.60;29.10;98681.41;2619615;54;20041;-66
2022/07/20 01:06:49;;;;;;;11.00;5.63;;;;;;;26.43;29.08;98690.91;2619493;54;20026;-66
2022/07/20 01:09:20;;;;;;;12.13;5.60;;;;;;;26.32;29.66;98689.47;2619546;54;20027;-66
2022/07/20 01:11:50;;;;;;;5.50;4.65;;;;;;;26.21;30.51;98689.97;2619636;54;20557;-66
2022/07/20 01:14:19;;;;;;;10.23;5.15;;;;;;;26.08;30.69;98691.53;2619655;54;20042;-66
2022/07/20 01:16:52;;;;;;;9.23;5.22;;;;;;;26.06;30.95;98682.91;2619665;54;20577;-66
2022/07/20 01:19:21;;;;;;;9.50;4.65;;;;;;;26.00;31.17;98690.31;2619110;54;20034;-66
2022/07/20 01:21:54;;;;;;;9.02;5.13;;;;;;;25.86;31.69;98684.06;2620065;54;20023;-66
2022/07/20 01:24:23;;;;;;;7.07;4.73;;;;;;;25.72;31.59;98691.28;2619982;54;20034;-66
2022/07/20 01:26:53;;;;;;;7.55;4.65;;;;;;;25.59;32.13;98688.22;2619596;54;20030;-66
2022/07/20 01:29:23;;;;;;;8.57;4.80;;;;;;;25.52;32.25;98689.72;2618767;47;20026;-66
2022/07/20 01:31:52;;;;;;;8.00;5.15;;;;;;;25.42;32.64;98693.34;2619600;54;20073;-67
2022/07/20 01:34:22;;;;;;;8.38;5.85;;;;;;;25.34;32.64;98689.38;2619658;54;20085;-66
2022/07/20 01:36:54;;;;;;;8.57;5.95;;;;;;;25.27;33.19;98694.38;2619977;54;20026;-66
2022/07/20 01:39:24;;;;;;;5.32;4.43;;;;;;;25.20;33.16;98694.72;2619202;54;20042;-66
2022/07/20 01:41:55;;;;;;;7.13;4.78;;;;;;;25.13;33.59;98696.19;2619851;54;20034;-66
2022/07/20 01:44:25;;;;;;;7.30;4.78;;;;;;;25.09;33.39;98695.16;2620080;54;20038;-67
2022/07/20 01:46:55;;;;;;;10.38;5.43;;;;;;;25.04;33.88;98698.69;2619994;54;20039;-67
2022/07/20 01:49:27;;;;;;;7.25;4.95;;;;;;;24.99;33.57;98696.06;2619408;54;20053;-66
2022/07/20 01:52:00;;;;;;;7.22;5.55;;;;;;;24.98;34.06;98697.13;2619798;54;20027;-66
2022/07/20 01:54:30;;;;;;;8.57;5.30;;;;;;;24.92;34.33;98699.09;2619873;54;20030;-66
2022/07/20 01:57:00;;;;;;;9.45;4.93;;;;;;;24.84;34.70;98697.03;2619831;54;20023;-66
2022/07/20 01:59:29;;;;;;;8.00;4.72;;;;;;;24.78;34.48;98700.91;2618787;54;20042;-66
2022/07/20 02:01:59;;;;;;;6.82;5.07;;;;;;;24.71;34.74;98703.94;2619619;39;20447;-67
2022/07/20 02:04:29;;;;;;;12.38;5.72;;;;;;;24.75;35.09;98709.59;2618655;54;20061;-66
2022/07/20 02:07:01;;;;;;;10.40;5.93;;;;;;;24.74;34.61;98707.97;2619357;54;20038;-66
2022/07/20 02:09:31;;;;;;;11.20;6.55;;;;;;;24.75;34.80;98711.50;2618946;54;20039;-66
2022/07/20 02:12:01;;;;;;;6.32;5.18;;;;;;;24.68;35.03;98703.72;2619304;54;20029;-66
2022/07/20 02:14:30;;;;;;;9.23;5.72;;;;;;;24.61;34.95;98711.34;2619805;39;20437;-67
2022/07/20 02:17:00;;;;;;;12.38;6.40;;;;;;;24.55;35.00;98709.81;2619341;54;20027;-67
2022/07/20 02:19:30;;;;;;;8.48;5.57;;;;;;;24.51;35.42;98712.28;2619350;54;20034;-67
2022/07/20 02:22:06;;;;;;;7.13;5.28;;;;;;;24.40;35.46;98708.06;2619883;54;20026;-67
2022/07/20 02:24:36;;;;;;;10.30;5.77;;;;;;;24.29;35.32;98709.22;2620804;54;20030;-67
2022/07/20 02:27:05;;;;;;;9.25;6.30;;;;;;;24.25;35.97;98708.16;2620455;54;20041;-66
2022/07/20 02:29:35;;;;;;;10.10;6.20;;;;;;;24.23;36.00;98709.25;2620333;54;20036;-65
2022/07/20 02:32:05;;;;;;;7.55;5.95;;;;;;;24.18;35.93;98712.00;2620841;54;20030;-65
2022/07/20 02:34:35;;;;;;;10.32;6.40;;;;;;;24.15;36.29;98707.16;2621303;54;20034;-65
2022/07/20 02:37:07;;;;;;;12.77;6.25;;;;;;;24.12;36.26;98704.22;2620841;54;20037;-65
2022/07/20 02:39:37;;;;;;;13.00;6.00;;;;;;;24.08;36.46;98706.69;2620331;54;20026;-65
2022/07/20 02:42:07;;;;;;;9.95;6.30;;;;;;;24.05;36.76;98701.88;2620683;54;20061;-65
2022/07/20 02:44:37;;;;;;;9.43;6.03;;;;;;;23.98;36.83;98704.09;2620974;54;20030;-65
2022/07/20 02:47:07;;;;;;;7.55;5.85;;;;;;;23.85;36.95;98700.16;2620220;47;20057;-65
2022/07/20 02:49:36;;;;;;;6.85;5.88;;;;;;;23.73;37.57;98699.69;2619741;54;20174;-65
2022/07/20 02:52:09;;;;;;;17.77;6.03;;;;;;;23.65;37.38;98701.09;2620308;54;20031;-65
2022/07/20 02:54:38;;;;;;;10.18;5.82;;;;;;;23.61;37.50;98707.31;2619708;54;20039;-66
2022/07/20 02:57:08;;;;;;;8.95;5.90;;;;;;;23.53;38.29;98702.50;2620472;39;20406;-65
2022/07/20 02:59:38;;;;;;;8.02;5.28;;;;;;;23.42;38.28;98699.84;2619562;54;20026;-66
2022/07/20 03:02:08;;;;;;;9.98;5.80;;;;;;;23.29;38.70;98695.06;2619831;54;20038;-67
2022/07/20 03:04:37;;;;;;;10.18;5.93;;;;;;;23.17;38.63;98706.19;2620751;39;20475;-66
2022/07/20 03:07:10;;;;;;;9.65;5.85;;;;;;;23.25;38.97;98712.91;2620127;54;20030;-66
2022/07/20 03:09:39;;;;;;;8.13;5.88;;;;;;;23.29;38.87;98705.88;2619333;54;20035;-66
2022/07/20 03:12:10;;;;;;;8.25;5.88;;;;;;;23.26;38.69;98716.41;2619196;39;20433;-66
2022/07/20 03:14:40;;;;;;;7.70;5.93;;;;;;;23.08;39.50;98715.94;2618859;54;20031;-66
2022/07/20 03:17:09;;;;;;;7.78;5.32;;;;;;;22.89;40.17;98720.28;2619020;39;20430;-66
2022/07/20 03:19:39;;;;;;;8.85;5.47;;;;;;;22.79;40.10;98718.44;2619513;39;20415;-66
2022/07/20 03:22:12;;;;;;;5.80;5.20;;;;;;;22.77;40.23;98723.28;2621203;54;20054;-66
2022/07/20 03:24:42;;;;;;;7.43;5.38;;;;;;;22.78;40.22;98719.53;2621636;39;20532;-65
2022/07/20 03:27:11;;;;;;;8.20;5.47;;;;;;;22.79;40.65;98723.03;2621063;54;20039;-65
2022/07/20 03:29:42;;;;;;;8.48;5.50;;;;;;;22.63;40.56;98725.75;2620953;54;20041;-65
2022/07/20 03:32:11;;;;;;;9.80;5.95;;;;;;;22.61;40.50;98730.59;2620938;54;20030;-65
2022/07/20 03:34:41;;;;;;;10.40;6.53;;;;;;;22.63;40.43;98730.34;2621098;54;20034;-65
2022/07/20 03:37:13;;;;;;;6.75;5.43;;;;;;;22.64;40.69;98737.34;2621106;54;20030;-65
2022/07/20 03:39:43;;;;;;;9.75;5.47;;;;;;;22.66;40.91;98752.16;2619791;47;20030;-66
2022/07/20 03:42:12;;;;;;;8.57;5.93;;;;;;;22.58;40.63;98749.22;2621064;54;20026;-66
2022/07/20 03:44:42;;;;;;;9.85;5.18;;;;;;;22.48;40.97;98755.41;2620795;54;20031;-66
2022/07/20 03:47:12;;;;;;;10.35;8.05;;;;;;;22.47;41.29;98749.22;2621149;39;20450;-66
2022/07/20 03:49:42;;;;;;;10.70;6.75;;;;;;;22.46;41.15;98757.59;2620051;54;20033;-66
2022/07/20 03:52:15;;;;;;;6.65;5.65;;;;;;;22.44;40.89;98754.34;2621072;39;20433;-65
2022/07/20 03:54:45;;;;;;;9.68;6.03;;;;;;;22.48;41.14;98756.22;2620741;54;20041;-67
2022/07/20 03:57:15;;;;;;;9.48;6.38;;;;;;;22.52;40.73;98751.09;2619864;46;20042;-68
2022/07/20 03:59:45;;;;;;;12.90;6.32;;;;;;;22.57;40.73;98747.59;2619654;54;20046;-67
2022/07/20 04:02:15;;;;;;;8.05;5.53;;;;;;;22.54;40.93;98746.25;2600259;47;20034;-65
2022/07/20 04:04:48;;;;;;;7.65;5.85;;;;;;;22.24;41.92;98758.66;2617894;54;20031;-65
2022/07/20 04:07:21;;;;;;;6.70;5.35;;;;;;;22.12;41.77;98758.09;2618027;54;20022;-66
2022/07/20 04:09:51;;;;;;;8.73;6.07;;;;;;;21.98;42.38;98759.72;2617710;54;20065;-64
2022/07/20 04:12:22;;;;;;;7.35;6.07;;;;;;;21.93;42.14;98754.31;2617817;54;20035;-66
2022/07/20 04:14:53;;;;;;;8.65;6.35;;;;;;;21.79;42.57;98756.72;2618071;54;20057;-68
2022/07/20 04:17:24;;;;;;;10.50;6.63;;;;;;;21.88;42.64;98767.75;2617641;54;20041;-66
2022/07/20 04:19:54;;;;;;;8.55;5.97;;;;;;;21.84;42.54;98770.19;2616940;54;20560;-67
2022/07/20 04:22:26;;;;;;;8.88;6.43;;;;;;;21.92;42.46;98763.47;2617649;54;20039;-68
2022/07/20 04:24:56;;;;;;;11.40;6.95;;;;;;;22.01;42.41;98754.59;2617669;54;20026;-68
2022/07/20 04:27:25;;;;;;;9.25;6.30;;;;;;;22.01;42.76;98762.69;2617639;54;20050;-67
2022/07/20 04:29:55;;;;;;;14.45;7.07;;;;;;;22.08;42.41;98764.28;2617539;54;20042;-68
2022/07/20 04:32:27;;;;;;;13.05;6.75;;;;;;;22.10;42.45;98757.56;2617634;54;20034;-66
2022/07/20 04:34:56;;;;;;;9.40;6.28;;;;;;;22.08;42.64;98759.69;2617321;54;20537;-68
2022/07/20 04:37:28;;;;;;;10.05;6.40;;;;;;;22.13;42.82;98761.66;2617929;54;20034;-66
2022/07/20 04:39:58;;;;;;;8.40;6.75;;;;;;;22.17;42.93;98766.22;2617795;54;20034;-68
2022/07/20 04:42:28;;;;;;;9.85;7.00;;;;;;;22.22;42.96;98763.53;2617937;54;20038;-68
2022/07/20 04:44:57;;;;;;;10.45;7.13;;;;;;;22.27;42.54;98772.66;2618731;39;20437;-67
2022/07/20 04:47:27;;;;;;;8.48;7.10;;;;;;;22.25;42.14;98770.25;2617828;54;20885;-68
2022/07/20 04:49:57;;;;;;;8.77;7.43;;;;;;;22.29;42.53;98768.66;2617744;54;20030;-69
2022/07/20 04:52:29;;;;;;;8.63;6.85;;;;;;;22.28;42.64;98768.91;2617719;47;20027;-68
2022/07/20 04:54:59;;;;;;;12.68;7.30;;;;;;;22.32;42.34;98776.16;2617972;54;20026;-69
2022/07/20 04:57:28;;;;;;;10.55;6.97;;;;;;;22.37;41.62;98768.09;2618069;54;20035;-69
2022/07/20 04:59:58;;;;;;;13.20;6.80;;;;;;;22.45;42.08;98777.50;2618005;54;20034;-67
2022/07/20 05:02:27;;;;;;;18.42;7.22;;;;;;;22.48;42.61;98766.19;2617973;54;20030;-66
2022/07/20 05:04:57;;;;;;;13.40;7.68;;;;;;;22.57;42.34;98771.84;2618587;54;20025;-66
2022/07/20 05:07:29;;;;;;;9.50;7.30;;;;;;;22.68;41.70;98771.56;2618330;54;20039;-67
2022/07/20 05:09:59;;;;;;;13.20;7.60;;;;;;;22.91;41.90;98778.28;2617753;54;20022;-68
2022/07/20 05:12:28;;;;;;;11.70;7.30;;;;;;;23.07;41.81;98779.03;2617648;54;20039;-67
2022/07/20 05:14:58;;;;;;;10.40;6.80;;;;;;;23.19;41.44;98787.63;2618441;54;20042;-65
2022/07/20 05:17:28;;;;;;;10.43;6.18;;;;;;;23.28;40.88;98785.16;2618076;47;20034;-68
2022/07/20 05:19:57;;;;;;;9.63;6.85;;;;;;;23.39;41.23;98781.34;2619145;54;20030;-66
2022/07/20 05:22:29;;;;;;;10.88;6.47;;;;;;;23.47;40.54;98788.03;2619002;47;20034;-68
2022/07/20 05:24:59;;;;;;;9.27;6.43;;;;;;;23.58;40.52;98794.19;2618595;54;20045;-67
2022/07/20 05:27:29;;;;;;;8.45;6.80;;;;;;;23.72;39.67;98781.75;2617656;54;20034;-67
2022/07/20 05:29:58;;;;;;;8.80;6.60;;;;;;;23.57;40.37;98785.28;2617396;54;20043;-67
2022/07/20 05:32:28;;;;;;;10.80;6.38;;;;;;;23.66;40.12;98783.66;2617617;54;20027;-67
2022/07/20 05:35:06;;;;;;;11.27;7.20;;;;;;;23.78;40.26;98786.00;2617504;54;20027;-66
2022/07/20 05:37:38;;;;;;;8.30;6.82;;;;;;;23.91;39.59;98787.28;2616968;47;20023;-66
2022/07/20 05:40:09;;;;;;;8.93;6.63;;;;;;;23.94;39.51;98789.44;2617485;54;20034;-67
2022/07/20 05:42:39;;;;;;;12.98;6.63;;;;;;;23.88;39.67;98790.53;2617956;54;20126;-65
2022/07/20 05:45:10;;;;;;;10.95;6.60;;;;;;;23.99;39.62;98800.19;2617685;54;20027;-70
2022/07/20 05:47:40;;;;;;;10.05;6.78;;;;;;;24.15;39.68;98790.09;2617337;39;20446;-67
2022/07/20 05:50:10;;;;;;;10.05;6.28;;;;;;;24.28;39.83;98799.44;2616829;54;20042;-68
2022/07/20 05:52:42;;;;;;;12.20;7.20;;;;;;;24.30;39.68;98791.88;2621378;54;20031;-68
2022/07/20 05:55:12;;;;;;;8.73;6.73;;;;;;;24.36;39.41;98805.03;2619873;54;20030;-69
2022/07/20 05:57:42;;;;;;;10.63;6.95;;;;;;;24.52;39.29;98799.53;2617695;54;20034;-65
2022/07/20 06:00:12;;;;;;;10.75;7.13;;;;;;;24.61;39.26;98803.22;2618121;54;20038;-66
2022/07/20 06:02:42;;;;;;;11.85;6.88;;;;;;;24.69;39.26;98806.13;2618197;54;20034;-66
2022/07/20 06:05:12;;;;;;;12.38;6.57;;;;;;;24.68;39.25;98807.22;2618161;54;20034;-66
2022/07/20 06:07:44;;;;;;;16.45;7.72;;;;;;;24.84;38.46;98805.19;2618341;54;20058;-66
2022/07/20 06:10:15;;;;;;;10.60;7.45;;;;;;;24.94;38.58;98809.66;2618184;54;20085;-66
2022/07/20 06:12:44;;;;;;;13.63;7.20;;;;;;;25.01;38.13;98817.44;2618245;54;20038;-66
2022/07/20 06:15:14;;;;;;;14.45;7.10;;;;;;;25.13;37.82;98829.50;2618499;54;20035;-66
2022/07/20 06:17:44;;;;;;;12.50;7.97;;;;;;;25.23;37.72;98817.78;2618800;39;20326;-66
2022/07/20 06:20:16;;;;;;;15.25;7.65;;;;;;;25.35;37.69;98826.31;2617937;54;20027;-66
2022/07/20 06:22:48;;;;;;;11.43;7.75;;;;;;;25.50;37.74;98832.59;2618179;54;20029;-67
2022/07/20 06:25:19;;;;;;;12.43;7.90;;;;;;;25.60;37.33;98830.59;2618192;54;20045;-66
2022/07/20 06:27:49;;;;;;;12.95;7.35;;;;;;;25.70;36.76;98833.16;2618197;54;20295;-66
2022/07/20 06:30:19;;;;;;;15.35;7.22;;;;;;;25.76;36.62;98831.19;2618057;54;20030;-67
2022/07/20 06:32:48;;;;;;;11.00;7.15;;;;;;;25.86;36.69;98825.66;2617911;39;20465;-66
2022/07/20 06:35:19;;;;;;;9.73;6.57;;;;;;;25.92;35.57;98827.22;2617485;54;20022;-66
2022/07/20 06:37:51;;;;;;;14.13;7.22;;;;;;;26.02;35.33;98825.44;2618259;54;20549;-66
2022/07/20 06:40:20;;;;;;;13.88;7.28;;;;;;;26.12;35.65;98828.00;2617351;54;20043;-67
2022/07/20 06:42:50;;;;;;;11.38;7.47;;;;;;;26.21;34.78;98822.72;2618142;54;20022;-66
2022/07/20 06:45:20;;;;;;;9.10;6.85;;;;;;;26.28;34.37;98818.53;2618057;54;20026;-66
2022/07/20 06:47:50;;;;;;;12.00;7.13;;;;;;;26.40;34.86;98812.66;2617995;54;20030;-66
2022/07/20 06:50:19;;;;;;;11.90;6.97;;;;;;;26.52;34.07;98817.66;2617860;54;20150;-67
2022/07/20 06:52:51;;;;;;;12.05;6.57;;;;;;;26.61;33.88;98816.66;2618421;54;20065;-67
2022/07/20 06:55:22;;;;;;;13.13;6.32;;;;;;;26.70;33.57;98821.41;2618762;54;20038;-68
2022/07/20 06:57:51;;;;;;;9.73;6.75;;;;;;;26.77;33.82;98822.63;2619014;39;20420;-67
2022/07/20 07:00:21;;;;;;;8.82;6.40;;;;;;;26.86;33.28;98820.03;2618220;54;20064;-68
2022/07/20 07:02:51;;;;;;;9.23;6.68;;;;;;;26.90;33.47;98823.75;2618306;39;20395;-67
2022/07/20 07:05:21;;;;;;;9.90;6.72;;;;;;;26.91;33.32;98815.31;2618767;54;20026;-67
2022/07/20 07:07:53;;;;;;;9.02;7.07;;;;;;;27.09;33.26;98807.38;2618667;54;20045;-67
2022/07/20 07:10:24;;;;;;;14.68;6.72;;;;;;;27.28;32.50;98818.19;2618687;54;20033;-67
2022/07/20 07:12:54;;;;;;;10.77;6.25;;;;;;;27.40;32.76;98813.84;2618634;54;20033;-67
2022/07/20 07:15:23;;;;;;;10.15;6.38;;;;;;;27.58;32.35;98816.75;2617944;54;20035;-66
2022/07/20 07:17:54;;;;;;;8.32;6.45;;;;;;;27.69;32.25;98823.56;2618556;54;20022;-66
2022/07/20 07:20:24;;;;;;;12.73;10.35;;;;;;;27.78;32.29;98810.91;2618437;54;20125;-66
2022/07/20 07:22:56;;;;;;;15.95;8.02;;;;;;;27.92;32.36;98808.13;2618478;54;20030;-66
2022/07/20 07:25:26;;;;;;;8.30;6.13;;;;;;;28.08;32.17;98814.81;2618884;54;20034;-66
2022/07/20 07:27:56;;;;;;;12.27;7.22;;;;;;;28.33;32.06;98815.34;2618668;54;20038;-67
2022/07/20 07:30:26;;;;;;;10.73;6.75;;;;;;;28.49;31.84;98822.03;2619054;39;20403;-67
2022/07/20 07:32:55;;;;;;;13.45;6.50;;;;;;;28.63;31.72;98821.97;2619253;54;20030;-66
2022/07/20 07:35:25;;;;;;;9.85;7.43;;;;;;;28.74;31.79;98842.38;2618129;47;20026;-66
2022/07/20 07:37:57;;;;;;;10.90;7.20;;;;;;;28.87;31.86;98840.66;2618642;54;20038;-66
2022/07/20 07:40:27;;;;;;;13.73;8.43;;;;;;;28.99;32.07;98842.84;2618638;54;20035;-66
2022/07/20 07:42:56;;;;;;;13.25;8.13;;;;;;;29.08;32.08;98833.59;2619539;54;20031;-66
2022/07/20 07:45:26;;;;;;;12.15;7.65;;;;;;;29.14;31.77;98831.53;2619286;54;20091;-66
2022/07/20 07:47:56;;;;;;;7.85;6.25;;;;;;;29.26;32.10;98828.22;2618616;39;20409;-66
2022/07/20 07:50:25;;;;;;;11.88;6.95;;;;;;;29.33;32.01;98839.44;2618181;47;20038;-67
2022/07/20 07:52:58;;;;;;;12.70;6.95;;;;;;;29.32;31.84;98844.09;2619781;39;20436;-67
2022/07/20 07:55:27;;;;;;;10.60;7.65;;;;;;;29.35;31.87;98840.75;2618835;54;20034;-66
2022/07/20 07:57:57;;;;;;;14.15;7.55;;;;;;;29.37;32.21;98854.03;2619163;54;20041;-67
2022/07/20 08:00:35;;;;;;;11.45;7.72;;;;;;;29.36;31.88;98858.69;2618822;54;20026;-67
2022/07/20 08:03:07;;;;;;;9.38;6.80;;;;;;;29.46;32.45;98856.78;2619324;54;20022;-66
2022/07/20 08:05:37;;;;;;;15.47;7.60;;;;;;;29.59;32.21;98870.28;2618447;54;20019;-66
2022/07/20 08:08:12;;;;;;;10.10;7.28;;;;;;;29.72;32.23;98857.69;2618763;47;20283;-66
2022/07/20 08:10:43;;;;;;;13.52;7.05;;;;;;;29.82;32.07;98859.31;2618195;54;20045;-67
2022/07/20 08:13:13;;;;;;;13.30;6.55;;;;;;;29.93;31.47;98870.72;2618827;54;20030;-66
2022/07/20 08:15:43;;;;;;;11.73;6.53;;;;;;;29.88;31.38;98868.13;2618701;54;20030;-67
2022/07/20 08:18:20;;;;;;;11.60;7.65;;;;;;;29.87;31.87;98872.78;2618225;47;20038;-67
2022/07/20 08:20:50;;;;;;;7.88;6.47;;;;;;;29.86;31.55;98876.63;2618899;54;20058;-67
2022/07/20 08:23:22;;;;;;;10.15;6.85;;;;;;;29.86;31.83;98879.34;2620157;47;20038;-67
2022/07/20 08:25:52;;;;;;;12.55;6.70;;;;;;;29.83;31.84;98878.06;2621775;54;20064;-66
2022/07/20 08:28:24;;;;;;;11.07;6.78;;;;;;;29.80;31.27;98878.72;2622649;54;20038;-66
2022/07/20 08:30:54;;;;;;;13.90;6.45;;;;;;;29.69;31.67;98887.50;2621698;54;20027;-67
2022/07/20 08:33:25;;;;;;;11.60;6.35;;;;;;;29.52;31.95;98885.50;2623046;54;20023;-67
2022/07/20 08:35:55;;;;;;;8.68;6.50;;;;;;;29.62;31.63;98890.66;2622507;51;20022;-67
2022/07/20 08:38:27;;;;;;;13.70;6.05;;;;;;;29.59;31.08;98902.97;2622619;54;20095;-68
2022/07/20 08:40:58;;;;;;;11.32;6.38;;;;;;;29.55;31.06;98903.91;2622441;54;20033;-67
2022/07/20 08:43:29;;;;;;;9.75;6.57;;;;;;;29.72;30.81;98904.00;2621253;54;20031;-66
2022/07/20 08:45:59;;;;;;;12.55;6.95;;;;;;;29.96;30.66;98902.75;2620945;54;20113;-66
2022/07/20 08:48:29;;;;;;;9.77;6.53;;;;;;;30.13;29.90;98907.41;2619656;54;20043;-68
2022/07/20 08:50:59;;;;;;;11.82;7.13;;;;;;;30.16;29.95;98902.16;2618732;47;20030;-67
2022/07/20 08:53:31;;;;;;;12.43;6.88;;;;;;;30.24;29.64;98915.00;2620066;54;20159;-67
2022/07/20 08:56:04;;;;;;;13.68;6.38;;;;;;;30.25;30.10;98904.91;2620874;54;20030;-67
2022/07/20 08:58:33;;;;;;;8.90;7.38;;;;;;;30.38;29.84;98900.44;2620146;54;20045;-65
2022/07/20 09:01:05;;;;;;;13.77;7.22;;;;;;;30.41;29.75;98911.47;2620067;54;20034;-68
2022/07/20 09:03:34;;;;;;;8.95;7.18;;;;;;;30.50;29.31;98912.31;2621058;54;20037;-67
2022/07/20 09:06:06;;;;;;;10.82;6.43;;;;;;;30.58;29.37;98907.97;2620847;54;20055;-67
2022/07/20 09:08:59;;;;;;;12.18;6.25;;;;;;;30.74;29.26;98917.28;2620386;54;20039;-67
2022/07/20 09:11:29;;;;;;;12.48;6.75;;;;;;;30.95;28.48;98911.16;2621596;54;20033;-67
2022/07/20 09:13:59;;;;;;;10.15;6.97;;;;;;;31.13;29.00;98903.72;2619469;54;20034;-66
2022/07/20 09:16:36;;;;;;;12.25;6.18;;;;;;;31.26;28.51;98897.22;2618311;47;20389;-66
2022/07/20 09:19:06;;;;;;;13.75;6.93;;;;;;;31.45;28.44;98891.41;2618437;47;20030;-66
2022/07/20 09:21:36;;;;;;;9.52;6.38;;;;;;;31.59;27.89;98891.97;2619079;54;20042;-66
2022/07/20 09:24:09;;;;;;;8.20;5.88;;;;;;;31.52;27.74;98881.56;2618374;54;20039;-67
2022/07/20 09:26:40;;;;;;;10.93;6.03;;;;;;;31.64;27.94;98888.25;2618893;54;20759;-66
2022/07/20 09:29:09;;;;;;;9.38;6.43;;;;;;;31.42;27.90;98895.59;2620823;47;20034;-67
2022/07/20 09:31:40;;;;;;;11.18;6.30;;;;;;;31.41;28.07;98887.72;2620204;54;20030;-67
2022/07/20 09:34:12;;;;;;;11.88;6.57;;;;;;;31.39;28.09;98879.06;2623466;47;20022;-67
2022/07/20 09:36:44;;;;;;;7.90;6.25;;;;;;;31.24;27.79;98870.25;2624724;54;20034;-68
2022/07/20 09:39:17;;;;;;;14.52;7.32;;;;;;;31.31;28.34;98870.59;2624548;54;20081;-68
2022/07/20 09:41:52;;;;;;;9.15;6.20;;;;;;;31.41;27.97;98872.16;2623870;51;20026;-67
2022/07/20 09:44:24;;;;;;;9.27;6.45;;;;;;;31.54;27.76;98876.56;2624792;54;20049;-67
2022/07/20 09:46:54;;;;;;;12.02;6.45;;;;;;;31.52;27.80;98875.31;2624747;54;20039;-67
2022/07/20 09:49:33;;;;;;;8.15;6.38;;;;;;;31.54;27.66;98876.56;2624465;54;20129;-67
2022/07/20 09:52:06;;;;;;;9.20;6.32;;;;;;;31.67;27.59;98876.66;2623991;54;20038;-66
2022/07/20 09:54:58;;;;;;;8.38;6.25;;;;;;;31.73;27.09;98870.69;2624439;54;20031;-67
2022/07/20 09:57:31;;;;;;;8.73;6.35;;;;;;;31.71;27.19;98872.13;2624833;54;20027;-67
2022/07/20 10:00:01;;;;;;;8.07;5.88;;;;;;;31.83;26.73;98864.81;2624099;54;20588;-67
2022/07/20 10:02:41;;;;;;;11.27;5.78;;;;;;;32.01;27.37;98862.00;2624898;54;20889;-67
2022/07/20 10:05:12;;;;;;;7.63;5.80;;;;;;;32.11;26.66;98860.81;2623657;54;20030;-67
2022/07/20 10:07:44;;;;;;;14.25;6.55;;;;;;;32.21;27.00;98865.84;2622535;54;20569;-67
2022/07/20 10:10:17;;;;;;;10.50;6.10;;;;;;;32.29;26.72;98871.28;2618490;54;20038;-67
2022/07/20 10:12:47;;;;;;;7.32;6.13;;;;;;;32.38;26.59;98873.94;2618033;54;20030;-67
2022/07/20 10:15:31;;;;;;;8.05;6.45;;;;;;;32.57;26.49;98867.97;2617435;54;20023;-66
2022/07/20 10:18:01;;;;;;;11.40;7.20;;;;;;;32.74;25.94;98864.25;2620168;54;20029;-67
2022/07/20 10:20:34;;;;;;;8.82;6.55;;;;;;;32.70;25.50;98866.06;2620360;54;20034;-66
2022/07/20 10:23:39;;;;;;;7.50;6.32;;;;;;;32.68;26.47;98863.69;2620275;54;20569;-66
2022/07/20 10:26:27;;;;;;;8.77;6.05;;;;;;;32.91;26.16;98869.56;2619108;47;20037;-65
2022/07/20 10:29:01;;;;;;;8.35;6.63;;;;;;;33.04;25.49;98879.44;2619497;54;20042;-69
2022/07/20 10:31:50;;;;;;;14.82;6.13;;;;;;;33.08;25.73;98876.81;2619165;54;20034;-66
2022/07/20 10:34:37;;;;;;;11.32;7.43;;;;;;;33.21;25.73;98872.94;2620043;54;20043;-66
2022/07/20 10:37:24;;;;;;;6.90;6.05;;;;;;;33.33;25.03;98865.88;2619745;54;20027;-68
2022/07/20 10:39:55;;;;;;;9.68;6.22;;;;;;;33.32;25.18;98865.09;2621145;54;20026;-67
2022/07/20 10:42:30;;;;;;;9.63;6.03;;;;;;;33.42;24.85;98864.63;2626779;54;20041;-68
2022/07/20 10:45:30;;;;;;;9.77;6.07;;;;;;;33.46;25.11;98862.81;2622790;31;20506;-68
2022/07/20 10:48:02;;;;;;;7.75;6.45;;;;;;;33.59;24.57;98860.88;2627035;54;20036;-67
2022/07/20 10:50:39;;;;;;;14.40;5.95;;;;;;;33.61;24.69;98863.28;2626686;54;20014;-66
2022/07/20 10:53:36;;;;;;;12.37;5.83;;;;;;;33.47;24.53;98861.69;2626596;54;20107;-66
2022/07/20 10:56:12;;;;;;;7.32;5.90;;;;;;;33.36;24.84;98865.22;2625513;54;20609;-68
2022/07/20 10:58:47;;;;;;;8.48;5.93;;;;;;;33.33;24.65;98855.72;2624873;54;20026;-68
2022/07/20 11:01:17;;;;;;;9.68;6.45;;;;;;;33.36;24.87;98860.53;2624493;54;20027;-66
2022/07/20 11:03:50;;;;;;;12.70;5.57;;;;;;;33.46;24.75;98862.03;2625073;54;20090;-67
2022/07/20 11:06:23;;;;;;;6.90;5.80;;;;;;;33.59;24.72;98860.88;2624752;39;20414;-68
2022/07/20 11:08:55;;;;;;;13.10;6.07;;;;;;;33.82;24.59;98866.69;2624074;54;20041;-66
2022/07/20 11:11:28;;;;;;;8.68;5.80;;;;;;;34.05;24.47;98860.72;2623891;54;20031;-67
2022/07/20 11:14:01;;;;;;;8.15;6.57;;;;;;;34.09;23.79;98864.34;2622191;39;20450;-67
2022/07/20 11:16:31;;;;;;;8.88;5.88;;;;;;;33.95;24.44;98854.53;2620290;46;20038;-66
2022/07/20 11:19:06;;;;;;;10.95;6.22;;;;;;;33.99;24.08;98852.72;2620169;51;20031;-67
2022/07/20 11:21:38;;;;;;;7.07;6.38;;;;;;;34.00;24.10;98850.78;2621270;54;20038;-67
2022/07/20 11:24:22;;;;;;;12.93;6.25;;;;;;;34.16;23.88;98843.41;2621306;54;20027;-68
2022/07/20 11:26:52;;;;;;;10.77;7.22;;;;;;;34.34;23.61;98843.16;2620462;54;20035;-66
2022/07/20 11:29:27;;;;;;;10.82;7.15;;;;;;;34.37;23.71;98845.16;2622426;54;20038;-65
2022/07/20 11:31:57;;;;;;;10.40;6.47;;;;;;;34.28;23.52;98850.00;2623148;54;20045;-67
2022/07/20 11:34:27;;;;;;;15.05;6.13;;;;;;;34.16;23.57;98848.91;2623068;54;20034;-68
2022/07/20 11:37:01;;;;;;;9.65;6.75;;;;;;;34.27;23.95;98843.72;2622245;46;20564;-65
2022/07/20 11:39:31;;;;;;;11.90;7.20;;;;;;;34.41;23.50;98838.63;2622085;54;20081;-66
2022/07/20 11:42:01;;;;;;;7.50;6.65;;;;;;;34.54;23.28;98842.16;2622381;54;20042;-65
2022/07/20 11:44:33;;;;;;;12.23;6.80;;;;;;;34.55;23.39;98835.53;2622230;54;20036;-66
2022/07/20 11:47:03;;;;;;;;;;;;;;;34.42;23.74;98828.47;2622835;54;20030;-67
2022/07/20 11:49:33;;;;;;;8.75;7.28;;;;;;;34.21;23.82;98824.00;2623254;54;20030;-66
2022/07/20 11:52:06;;;;;;;10.75;6.45;;;;;;;34.29;24.22;98824.97;2622861;54;20033;-68